EZS8HR EDDH-LFSB
Flight info
| Callsign | EZS8HR |
|---|---|
| Flight time | N/A |
| Altitude | 33000 |
| Route | IDEKO7G IDEKO N850 NIE DCT OTMON/N0418F320 DCT SWALM DCT OMOGI/N0420F330 T721 SUNEG T715 RIGVI |
| Aircraft | A320/M-SDE3FGHIRWY/LB1 |
Departure
| Time | 2026-04-30 19:06 |
|---|---|
| Airport | Hamburg Helmut Schmidt Airport (EDDH) |
Arrival
| Time | N/A |
|---|---|
| Airport | EuroAirport Basel–Mulhouse–Freiburg (LFSB) |
| Time | Latitude | Longitude | Altitude | Speed | Heading |
|---|---|---|---|---|---|
| 2026-04-30 18:02 | 53.62844 | 10.00217 | 49 ft | 0 kts | 62° |
| 2026-04-30 18:51 | 53.62844 | 10.00216 | 48 ft | 1 kts | 62° |
| 2026-04-30 18:51 | 53.62834 | 10.00182 | 46 ft | 4 kts | 63° |
| 2026-04-30 18:52 | 53.62824 | 10.00150 | 44 ft | 3 kts | 63° |
| 2026-04-30 18:52 | 53.62813 | 10.00117 | 45 ft | 4 kts | 30° |
| 2026-04-30 18:52 | 53.62793 | 10.00117 | 45 ft | 4 kts | 334° |
| 2026-04-30 18:52 | 53.62770 | 10.00136 | 48 ft | 4 kts | 333° |
| 2026-04-30 18:53 | 53.62762 | 10.00142 | 45 ft | 0 kts | 333° |
| 2026-04-30 18:56 | 53.62766 | 10.00139 | 48 ft | 3 kts | 333° |
| 2026-04-30 18:56 | 53.62776 | 10.00130 | 47 ft | 1 kts | 333° |
| 2026-04-30 18:57 | 53.62802 | 10.00108 | 48 ft | 0 kts | 333° |
| 2026-04-30 18:57 | 53.62809 | 10.00101 | 48 ft | 2 kts | 333° |
| 2026-04-30 18:57 | 53.62811 | 10.00100 | 48 ft | 0 kts | 333° |
| 2026-04-30 19:01 | 53.62812 | 10.00099 | 48 ft | 2 kts | 333° |
| 2026-04-30 19:02 | 53.62853 | 9.99983 | 45 ft | 6 kts | 246° |
| 2026-04-30 19:02 | 53.62844 | 9.99955 | 46 ft | 0 kts | 242° |
| 2026-04-30 19:04 | 53.62813 | 9.99835 | 45 ft | 16 kts | 266° |
| 2026-04-30 19:05 | 53.62863 | 9.99749 | 45 ft | 0 kts | 333° |
| 2026-04-30 19:06 | 53.63127 | 9.99521 | 46 ft | 79 kts | 332° |
| 2026-04-30 19:06 | 53.63806 | 9.98933 | 49 ft | 138 kts | 332° |
| 2026-04-30 19:06 | 53.65846 | 9.97176 | 885 ft | 171 kts | 335° |
| 2026-04-30 19:07 | 53.68150 | 9.95220 | 1760 ft | 206 kts | 335° |
| 2026-04-30 19:07 | 53.69478 | 9.94087 | 2219 ft | 218 kts | 334° |
| 2026-04-30 19:08 | 53.71511 | 9.90474 | 3570 ft | 232 kts | 277° |
| 2026-04-30 19:08 | 53.70817 | 9.84743 | 4527 ft | 270 kts | 249° |
| 2026-04-30 19:08 | 53.70160 | 9.81726 | 5327 ft | 277 kts | 248° |
| 2026-04-30 19:09 | 53.68784 | 9.75484 | 6944 ft | 290 kts | 249° |
| 2026-04-30 19:09 | 53.68104 | 9.72252 | 7734 ft | 295 kts | 250° |
| 2026-04-30 19:09 | 53.67433 | 9.68959 | 8557 ft | 299 kts | 250° |
| 2026-04-30 19:10 | 53.65836 | 9.62505 | 10177 ft | 305 kts | 233° |
| 2026-04-30 19:10 | 53.62511 | 9.57868 | 11213 ft | 326 kts | 199° |
| 2026-04-30 19:11 | 53.60302 | 9.56934 | 11556 ft | 337 kts | 182° |
| 2026-04-30 19:11 | 53.55562 | 9.56091 | 12917 ft | 348 kts | 183° |
| 2026-04-30 19:11 | 53.53139 | 9.55608 | 13632 ft | 352 kts | 183° |
| 2026-04-30 19:12 | 53.50697 | 9.55106 | 14321 ft | 356 kts | 183° |
| 2026-04-30 19:12 | 53.48221 | 9.54597 | 14930 ft | 361 kts | 183° |
| 2026-04-30 19:12 | 53.45716 | 9.54087 | 15536 ft | 364 kts | 183° |
| 2026-04-30 19:13 | 53.40627 | 9.53073 | 16746 ft | 372 kts | 183° |
| 2026-04-30 19:13 | 53.35430 | 9.52052 | 17951 ft | 380 kts | 183° |
| 2026-04-30 19:13 | 53.32798 | 9.51537 | 18544 ft | 384 kts | 183° |
| 2026-04-30 19:14 | 53.30166 | 9.51025 | 19066 ft | 387 kts | 183° |
| 2026-04-30 19:14 | 53.27480 | 9.50503 | 19574 ft | 391 kts | 183° |
| 2026-04-30 19:14 | 53.24764 | 9.49974 | 20082 ft | 394 kts | 184° |
| 2026-04-30 19:14 | 53.22028 | 9.49440 | 20364 ft | 397 kts | 184° |
| 2026-04-30 19:15 | 53.19284 | 9.48905 | 20424 ft | 397 kts | 184° |
| 2026-04-30 19:15 | 53.13764 | 9.47832 | 21150 ft | 402 kts | 184° |
| 2026-04-30 19:15 | 53.10982 | 9.47291 | 21652 ft | 405 kts | 184° |
| 2026-04-30 19:16 | 53.08166 | 9.46749 | 22137 ft | 408 kts | 184° |
| 2026-04-30 19:16 | 53.05336 | 9.46204 | 22612 ft | 411 kts | 184° |
| 2026-04-30 19:16 | 52.99604 | 9.45098 | 23547 ft | 418 kts | 184° |
| 2026-04-30 19:17 | 52.96705 | 9.44525 | 23992 ft | 421 kts | 185° |
| 2026-04-30 19:17 | 52.90896 | 9.43280 | 24760 ft | 427 kts | 186° |
| 2026-04-30 19:17 | 52.87941 | 9.42627 | 25150 ft | 429 kts | 186° |
| 2026-04-30 19:18 | 52.83004 | 9.41551 | 25792 ft | 432 kts | 186° |
| 2026-04-30 19:18 | 52.79214 | 9.40731 | 26284 ft | 435 kts | 186° |
| 2026-04-30 19:18 | 52.76216 | 9.40086 | 26657 ft | 437 kts | 186° |
| 2026-04-30 19:19 | 52.73193 | 9.39444 | 27031 ft | 439 kts | 186° |
| 2026-04-30 19:19 | 52.70160 | 9.38808 | 27398 ft | 441 kts | 186° |
| 2026-04-30 19:19 | 52.64034 | 9.37530 | 28125 ft | 445 kts | 186° |
| 2026-04-30 19:20 | 52.60946 | 9.37183 | 28465 ft | 446 kts | 179° |
| 2026-04-30 19:20 | 52.57838 | 9.37121 | 28817 ft | 448 kts | 179° |
| 2026-04-30 19:20 | 52.51579 | 9.36987 | 29507 ft | 452 kts | 179° |
| 2026-04-30 19:21 | 52.48422 | 9.36915 | 29828 ft | 454 kts | 179° |
| 2026-04-30 19:21 | 52.42108 | 9.36772 | 30476 ft | 459 kts | 180° |
| 2026-04-30 19:22 | 52.35693 | 9.36631 | 30996 ft | 462 kts | 179° |
| 2026-04-30 19:22 | 52.26000 | 9.36432 | 31770 ft | 466 kts | 179° |
| 2026-04-30 19:23 | 52.16381 | 9.36229 | 32873 ft | 463 kts | 179° |
| 2026-04-30 19:24 | 52.09950 | 9.36101 | 33399 ft | 461 kts | 179° |
| 2026-04-30 19:24 | 52.06770 | 9.36036 | 33431 ft | 457 kts | 179° |
| 2026-04-30 19:24 | 52.00302 | 9.35897 | 33430 ft | 472 kts | 179° |
| 2026-04-30 19:25 | 51.90299 | 9.35679 | 33431 ft | 483 kts | 179° |
| 2026-04-30 19:26 | 51.76851 | 9.35408 | 33428 ft | 483 kts | 179° |
| 2026-04-30 19:27 | 51.66763 | 9.35205 | 33443 ft | 484 kts | 179° |
| 2026-04-30 19:28 | 51.56667 | 9.34990 | 33442 ft | 483 kts | 179° |
| 2026-04-30 19:29 | 51.43236 | 9.34719 | 33425 ft | 482 kts | 179° |
| 2026-04-30 19:30 | 51.29808 | 9.34410 | 33408 ft | 483 kts | 182° |
| 2026-04-30 19:31 | 51.16462 | 9.31341 | 33399 ft | 485 kts | 187° |
| 2026-04-30 19:31 | 51.06458 | 9.28899 | 33404 ft | 485 kts | 187° |
| 2026-04-30 19:32 | 50.99781 | 9.27280 | 33406 ft | 486 kts | 187° |
| 2026-04-30 19:32 | 50.93089 | 9.25666 | 33406 ft | 486 kts | 187° |
| 2026-04-30 19:33 | 50.86455 | 9.24064 | 33406 ft | 486 kts | 187° |
| 2026-04-30 19:33 | 50.79764 | 9.22472 | 33408 ft | 486 kts | 186° |
| 2026-04-30 19:34 | 50.73073 | 9.20879 | 33399 ft | 486 kts | 186° |
| 2026-04-30 19:35 | 50.63024 | 9.18670 | 33391 ft | 486 kts | 185° |
| 2026-04-30 19:35 | 50.56321 | 9.17336 | 33386 ft | 486 kts | 185° |
| 2026-04-30 19:36 | 50.49622 | 9.15979 | 33390 ft | 486 kts | 185° |
| 2026-04-30 19:36 | 50.39598 | 9.13900 | 33379 ft | 486 kts | 185° |
| 2026-04-30 19:37 | 50.32889 | 9.12517 | 33373 ft | 486 kts | 185° |
| 2026-04-30 19:37 | 50.26181 | 9.11134 | 33380 ft | 486 kts | 185° |
| 2026-04-30 19:38 | 50.19466 | 9.09761 | 33367 ft | 486 kts | 185° |
| 2026-04-30 19:38 | 50.12759 | 9.08416 | 33359 ft | 486 kts | 185° |
| 2026-04-30 19:39 | 50.06045 | 9.07067 | 33356 ft | 486 kts | 185° |
| 2026-04-30 19:39 | 49.99337 | 9.05691 | 33351 ft | 486 kts | 185° |
| 2026-04-30 19:40 | 49.92664 | 9.04327 | 33348 ft | 487 kts | 185° |
| 2026-04-30 19:40 | 49.85953 | 9.02983 | 33343 ft | 487 kts | 185° |
| 2026-04-30 19:41 | 49.79237 | 9.01643 | 33342 ft | 487 kts | 185° |
| 2026-04-30 19:41 | 49.72516 | 9.00307 | 33344 ft | 487 kts | 185° |
| 2026-04-30 19:42 | 49.65846 | 8.98972 | 33344 ft | 487 kts | 185° |
| 2026-04-30 19:42 | 49.59141 | 8.97340 | 33342 ft | 488 kts | 187° |
| 2026-04-30 19:43 | 49.52477 | 8.95387 | 33336 ft | 488 kts | 188° |